sensor_id;sensor_type;location;lat;lon;timestamp;P1;durP1;ratioP1;P2;durP2;ratioP2
47844;SDS011;33605;48.822;8.796;2023-05-07T00:01:14;3.13;;;2.83;;
47844;SDS011;33605;48.822;8.796;2023-05-07T00:03:39;4.97;;;2.93;;
47844;SDS011;33605;48.822;8.796;2023-05-07T00:06:05;3.27;;;2.97;;
47844;SDS011;33605;48.822;8.796;2023-05-07T00:08:31;3.13;;;2.53;;
47844;SDS011;33605;48.822;8.796;2023-05-07T00:10:56;3.23;;;2.93;;
47844;SDS011;33605;48.822;8.796;2023-05-07T00:13:22;4.83;;;2.63;;
47844;SDS011;33605;48.822;8.796;2023-05-07T00:15:47;2.73;;;2.50;;
47844;SDS011;33605;48.822;8.796;2023-05-07T00:18:13;3.30;;;2.90;;
47844;SDS011;33605;48.822;8.796;2023-05-07T00:20:38;3.10;;;2.80;;
47844;SDS011;33605;48.822;8.796;2023-05-07T00:23:04;3.97;;;3.10;;
47844;SDS011;33605;48.822;8.796;2023-05-07T00:25:30;3.50;;;3.20;;
47844;SDS011;33605;48.822;8.796;2023-05-07T00:27:55;4.80;;;3.17;;
47844;SDS011;33605;48.822;8.796;2023-05-07T00:30:22;3.60;;;3.30;;
47844;SDS011;33605;48.822;8.796;2023-05-07T00:32:48;4.73;;;3.00;;
47844;SDS011;33605;48.822;8.796;2023-05-07T00:35:14;3.83;;;2.97;;
47844;SDS011;33605;48.822;8.796;2023-05-07T00:37:39;2.70;;;2.50;;
47844;SDS011;33605;48.822;8.796;2023-05-07T00:40:05;3.93;;;3.03;;
47844;SDS011;33605;48.822;8.796;2023-05-07T00:42:32;3.20;;;2.90;;
47844;SDS011;33605;48.822;8.796;2023-05-07T00:44:58;4.83;;;2.80;;
47844;SDS011;33605;48.822;8.796;2023-05-07T00:47:24;3.03;;;2.73;;
47844;SDS011;33605;48.822;8.796;2023-05-07T00:49:50;3.10;;;2.90;;
47844;SDS011;33605;48.822;8.796;2023-05-07T00:52:17;3.17;;;2.87;;
47844;SDS011;33605;48.822;8.796;2023-05-07T00:54:44;3.00;;;2.80;;
47844;SDS011;33605;48.822;8.796;2023-05-07T00:57:10;3.23;;;2.83;;
47844;SDS011;33605;48.822;8.796;2023-05-07T00:59:36;3.50;;;2.93;;
47844;SDS011;33605;48.822;8.796;2023-05-07T01:02:02;4.70;;;2.80;;
47844;SDS011;33605;48.822;8.796;2023-05-07T01:04:28;2.80;;;2.60;;
47844;SDS011;33605;48.822;8.796;2023-05-07T01:06:56;2.90;;;2.60;;
47844;SDS011;33605;48.822;8.796;2023-05-07T01:09:24;2.70;;;2.50;;
47844;SDS011;33605;48.822;8.796;2023-05-07T01:11:50;2.63;;;2.43;;
47844;SDS011;33605;48.822;8.796;2023-05-07T01:14:17;3.13;;;2.83;;
47844;SDS011;33605;48.822;8.796;2023-05-07T01:16:44;3.27;;;2.97;;
47844;SDS011;33605;48.822;8.796;2023-05-07T01:19:09;3.70;;;3.20;;
47844;SDS011;33605;48.822;8.796;2023-05-07T01:21:38;5.40;;;3.37;;
47844;SDS011;33605;48.822;8.796;2023-05-07T01:24:10;3.50;;;3.20;;
47844;SDS011;33605;48.822;8.796;2023-05-07T01:26:36;3.20;;;2.67;;
47844;SDS011;33605;48.822;8.796;2023-05-07T01:29:02;6.73;;;2.80;;
47844;SDS011;33605;48.822;8.796;2023-05-07T01:31:28;3.30;;;3.00;;
47844;SDS011;33605;48.822;8.796;2023-05-07T01:33:54;3.30;;;3.00;;
47844;SDS011;33605;48.822;8.796;2023-05-07T01:36:21;4.07;;;3.67;;
47844;SDS011;33605;48.822;8.796;2023-05-07T01:38:50;2.90;;;2.70;;
47844;SDS011;33605;48.822;8.796;2023-05-07T01:41:16;5.80;;;2.97;;
47844;SDS011;33605;48.822;8.796;2023-05-07T01:43:42;4.50;;;3.20;;
47844;SDS011;33605;48.822;8.796;2023-05-07T01:46:08;4.10;;;3.03;;
47844;SDS011;33605;48.822;8.796;2023-05-07T01:48:35;3.20;;;2.90;;
47844;SDS011;33605;48.822;8.796;2023-05-07T01:51:01;4.10;;;2.97;;
47844;SDS011;33605;48.822;8.796;2023-05-07T01:53:27;3.13;;;2.83;;
47844;SDS011;33605;48.822;8.796;2023-05-07T01:56:00;3.37;;;3.03;;
47844;SDS011;33605;48.822;8.796;2023-05-07T01:58:25;3.00;;;2.80;;
47844;SDS011;33605;48.822;8.796;2023-05-07T02:00:51;3.30;;;3.00;;
47844;SDS011;33605;48.822;8.796;2023-05-07T02:03:16;2.70;;;2.20;;
47844;SDS011;33605;48.822;8.796;2023-05-07T02:05:42;4.50;;;3.17;;
47844;SDS011;33605;48.822;8.796;2023-05-07T02:08:07;4.83;;;3.30;;
47844;SDS011;33605;48.822;8.796;2023-05-07T02:10:33;4.00;;;3.10;;
47844;SDS011;33605;48.822;8.796;2023-05-07T02:12:58;3.53;;;3.23;;
47844;SDS011;33605;48.822;8.796;2023-05-07T02:15:26;3.50;;;3.30;;
47844;SDS011;33605;48.822;8.796;2023-05-07T02:17:59;5.23;;;3.20;;
47844;SDS011;33605;48.822;8.796;2023-05-07T02:20:26;4.63;;;3.20;;
47844;SDS011;33605;48.822;8.796;2023-05-07T02:22:52;4.23;;;3.30;;
47844;SDS011;33605;48.822;8.796;2023-05-07T02:25:17;3.50;;;3.20;;
47844;SDS011;33605;48.822;8.796;2023-05-07T02:27:43;3.70;;;3.40;;
47844;SDS011;33605;48.822;8.796;2023-05-07T02:30:09;4.83;;;3.27;;
47844;SDS011;33605;48.822;8.796;2023-05-07T02:32:35;3.10;;;2.90;;
47844;SDS011;33605;48.822;8.796;2023-05-07T02:35:01;3.30;;;3.00;;
47844;SDS011;33605;48.822;8.796;2023-05-07T02:37:26;3.80;;;3.30;;
47844;SDS011;33605;48.822;8.796;2023-05-07T02:39:52;3.23;;;3.03;;
47844;SDS011;33605;48.822;8.796;2023-05-07T02:42:17;3.73;;;3.27;;
47844;SDS011;33605;48.822;8.796;2023-05-07T02:44:43;5.40;;;3.07;;
47844;SDS011;33605;48.822;8.796;2023-05-07T02:47:08;3.60;;;3.30;;
47844;SDS011;33605;48.822;8.796;2023-05-07T02:49:35;7.93;;;3.30;;
47844;SDS011;33605;48.822;8.796;2023-05-07T02:52:01;3.90;;;3.60;;
47844;SDS011;33605;48.822;8.796;2023-05-07T02:54:26;3.73;;;3.43;;
47844;SDS011;33605;48.822;8.796;2023-05-07T02:56:52;4.97;;;3.00;;
47844;SDS011;33605;48.822;8.796;2023-05-07T02:59:17;3.73;;;3.37;;
47844;SDS011;33605;48.822;8.796;2023-05-07T03:01:43;3.80;;;3.50;;
47844;SDS011;33605;48.822;8.796;2023-05-07T03:04:10;4.23;;;3.80;;
47844;SDS011;33605;48.822;8.796;2023-05-07T03:06:36;3.97;;;3.50;;
47844;SDS011;33605;48.822;8.796;2023-05-07T03:09:02;3.27;;;2.97;;
47844;SDS011;33605;48.822;8.796;2023-05-07T03:11:28;5.67;;;3.67;;
47844;SDS011;33605;48.822;8.796;2023-05-07T03:13:53;4.00;;;3.53;;
47844;SDS011;33605;48.822;8.796;2023-05-07T03:16:19;3.10;;;2.80;;
47844;SDS011;33605;48.822;8.796;2023-05-07T03:18:44;3.33;;;3.10;;
47844;SDS011;33605;48.822;8.796;2023-05-07T03:21:10;4.10;;;3.07;;
47844;SDS011;33605;48.822;8.796;2023-05-07T03:23:36;3.67;;;3.33;;
47844;SDS011;33605;48.822;8.796;2023-05-07T03:26:01;3.10;;;2.90;;
47844;SDS011;33605;48.822;8.796;2023-05-07T03:28:27;12.17;;;3.70;;
47844;SDS011;33605;48.822;8.796;2023-05-07T03:30:52;3.30;;;3.00;;
47844;SDS011;33605;48.822;8.796;2023-05-07T03:33:18;2.90;;;2.70;;
47844;SDS011;33605;48.822;8.796;2023-05-07T03:35:44;4.60;;;3.27;;
47844;SDS011;33605;48.822;8.796;2023-05-07T03:38:09;4.93;;;3.33;;
47844;SDS011;33605;48.822;8.796;2023-05-07T03:40:35;3.67;;;3.30;;
47844;SDS011;33605;48.822;8.796;2023-05-07T03:43:00;4.80;;;3.00;;
47844;SDS011;33605;48.822;8.796;2023-05-07T03:45:26;3.20;;;2.90;;
47844;SDS011;33605;48.822;8.796;2023-05-07T03:47:51;3.50;;;3.20;;
47844;SDS011;33605;48.822;8.796;2023-05-07T03:50:17;5.40;;;3.37;;
47844;SDS011;33605;48.822;8.796;2023-05-07T03:52:42;3.30;;;2.93;;
47844;SDS011;33605;48.822;8.796;2023-05-07T03:55:08;4.40;;;3.20;;
47844;SDS011;33605;48.822;8.796;2023-05-07T03:57:34;3.83;;;2.87;;
47844;SDS011;33605;48.822;8.796;2023-05-07T03:59:59;3.30;;;3.00;;
47844;SDS011;33605;48.822;8.796;2023-05-07T04:02:25;3.40;;;3.10;;
47844;SDS011;33605;48.822;8.796;2023-05-07T04:04:52;3.07;;;2.77;;
47844;SDS011;33605;48.822;8.796;2023-05-07T04:07:17;3.23;;;2.93;;
47844;SDS011;33605;48.822;8.796;2023-05-07T04:09:43;3.30;;;3.00;;
47844;SDS011;33605;48.822;8.796;2023-05-07T04:12:08;3.13;;;2.83;;
47844;SDS011;33605;48.822;8.796;2023-05-07T04:14:34;5.67;;;3.03;;
47844;SDS011;33605;48.822;8.796;2023-05-07T04:16:59;3.83;;;3.50;;
47844;SDS011;33605;48.822;8.796;2023-05-07T04:19:25;4.00;;;3.33;;
47844;SDS011;33605;48.822;8.796;2023-05-07T04:21:50;4.43;;;3.60;;
47844;SDS011;33605;48.822;8.796;2023-05-07T04:24:16;4.27;;;3.13;;
47844;SDS011;33605;48.822;8.796;2023-05-07T04:26:42;3.50;;;3.20;;
47844;SDS011;33605;48.822;8.796;2023-05-07T04:29:07;5.40;;;3.87;;
47844;SDS011;33605;48.822;8.796;2023-05-07T04:31:33;3.43;;;3.13;;
47844;SDS011;33605;48.822;8.796;2023-05-07T04:33:59;3.33;;;3.03;;
47844;SDS011;33605;48.822;8.796;2023-05-07T04:36:24;3.40;;;3.17;;
47844;SDS011;33605;48.822;8.796;2023-05-07T04:38:52;4.60;;;3.30;;
47844;SDS011;33605;48.822;8.796;2023-05-07T04:41:18;3.20;;;2.90;;
47844;SDS011;33605;48.822;8.796;2023-05-07T04:43:44;3.93;;;3.63;;
47844;SDS011;33605;48.822;8.796;2023-05-07T04:46:10;3.77;;;3.47;;
47844;SDS011;33605;48.822;8.796;2023-05-07T04:48:36;4.00;;;3.53;;
47844;SDS011;33605;48.822;8.796;2023-05-07T04:51:01;4.03;;;3.40;;
47844;SDS011;33605;48.822;8.796;2023-05-07T04:53:27;3.67;;;3.10;;
47844;SDS011;33605;48.822;8.796;2023-05-07T04:55:56;3.03;;;2.73;;
47844;SDS011;33605;48.822;8.796;2023-05-07T04:58:22;4.40;;;3.37;;
47844;SDS011;33605;48.822;8.796;2023-05-07T05:00:48;3.90;;;3.60;;
47844;SDS011;33605;48.822;8.796;2023-05-07T05:03:14;3.70;;;3.40;;
47844;SDS011;33605;48.822;8.796;2023-05-07T05:05:40;4.13;;;2.97;;
47844;SDS011;33605;48.822;8.796;2023-05-07T05:08:05;3.70;;;3.40;;
47844;SDS011;33605;48.822;8.796;2023-05-07T05:10:31;4.53;;;3.13;;
47844;SDS011;33605;48.822;8.796;2023-05-07T05:12:57;4.13;;;3.10;;
47844;SDS011;33605;48.822;8.796;2023-05-07T05:15:22;4.20;;;3.77;;
47844;SDS011;33605;48.822;8.796;2023-05-07T05:17:48;5.30;;;3.97;;
47844;SDS011;33605;48.822;8.796;2023-05-07T05:20:14;3.60;;;3.30;;
47844;SDS011;33605;48.822;8.796;2023-05-07T05:22:40;3.30;;;3.00;;
47844;SDS011;33605;48.822;8.796;2023-05-07T05:25:07;3.63;;;3.37;;
47844;SDS011;33605;48.822;8.796;2023-05-07T05:27:32;5.20;;;3.07;;
47844;SDS011;33605;48.822;8.796;2023-05-07T05:29:59;3.30;;;2.90;;
47844;SDS011;33605;48.822;8.796;2023-05-07T05:32:24;4.17;;;3.20;;
47844;SDS011;33605;48.822;8.796;2023-05-07T05:34:50;3.40;;;3.10;;
47844;SDS011;33605;48.822;8.796;2023-05-07T05:37:16;4.17;;;3.30;;
47844;SDS011;33605;48.822;8.796;2023-05-07T05:39:41;3.53;;;3.23;;
47844;SDS011;33605;48.822;8.796;2023-05-07T05:42:07;2.90;;;2.70;;
47844;SDS011;33605;48.822;8.796;2023-05-07T05:44:33;5.50;;;2.97;;
47844;SDS011;33605;48.822;8.796;2023-05-07T05:46:58;4.00;;;2.87;;
47844;SDS011;33605;48.822;8.796;2023-05-07T05:49:24;3.37;;;2.80;;
47844;SDS011;33605;48.822;8.796;2023-05-07T05:51:50;3.10;;;2.90;;
47844;SDS011;33605;48.822;8.796;2023-05-07T05:54:16;3.63;;;3.33;;
47844;SDS011;33605;48.822;8.796;2023-05-07T05:56:42;3.50;;;3.20;;
47844;SDS011;33605;48.822;8.796;2023-05-07T05:59:07;6.83;;;3.30;;
47844;SDS011;33605;48.822;8.796;2023-05-07T06:01:33;3.60;;;3.30;;
47844;SDS011;33605;48.822;8.796;2023-05-07T06:03:59;2.93;;;2.73;;
47844;SDS011;33605;48.822;8.796;2023-05-07T06:06:25;3.47;;;3.17;;
47844;SDS011;33605;48.822;8.796;2023-05-07T06:08:50;4.80;;;3.70;;
47844;SDS011;33605;48.822;8.796;2023-05-07T06:11:16;3.20;;;3.00;;
47844;SDS011;33605;48.822;8.796;2023-05-07T06:13:42;4.37;;;3.07;;
47844;SDS011;33605;48.822;8.796;2023-05-07T06:16:07;3.00;;;2.80;;
47844;SDS011;33605;48.822;8.796;2023-05-07T06:18:33;3.03;;;2.83;;
47844;SDS011;33605;48.822;8.796;2023-05-07T06:21:00;3.23;;;2.93;;
47844;SDS011;33605;48.822;8.796;2023-05-07T06:23:26;3.40;;;3.10;;
47844;SDS011;33605;48.822;8.796;2023-05-07T06:25:52;3.37;;;3.07;;
47844;SDS011;33605;48.822;8.796;2023-05-07T06:28:17;3.43;;;3.13;;
47844;SDS011;33605;48.822;8.796;2023-05-07T06:30:43;3.67;;;3.37;;
47844;SDS011;33605;48.822;8.796;2023-05-07T06:33:09;3.90;;;3.50;;
47844;SDS011;33605;48.822;8.796;2023-05-07T06:35:34;3.43;;;3.13;;
47844;SDS011;33605;48.822;8.796;2023-05-07T06:38:00;3.83;;;3.20;;
47844;SDS011;33605;48.822;8.796;2023-05-07T06:40:26;3.37;;;3.10;;
47844;SDS011;33605;48.822;8.796;2023-05-07T06:42:52;4.53;;;3.70;;
47844;SDS011;33605;48.822;8.796;2023-05-07T06:45:18;2.73;;;2.53;;
47844;SDS011;33605;48.822;8.796;2023-05-07T06:47:45;3.57;;;3.13;;
47844;SDS011;33605;48.822;8.796;2023-05-07T06:50:10;4.73;;;3.47;;
47844;SDS011;33605;48.822;8.796;2023-05-07T06:52:36;4.00;;;3.50;;
47844;SDS011;33605;48.822;8.796;2023-05-07T06:55:01;3.67;;;3.27;;
47844;SDS011;33605;48.822;8.796;2023-05-07T06:57:27;3.40;;;2.80;;
47844;SDS011;33605;48.822;8.796;2023-05-07T06:59:53;4.50;;;3.33;;
47844;SDS011;33605;48.822;8.796;2023-05-07T07:02:18;5.37;;;3.63;;
47844;SDS011;33605;48.822;8.796;2023-05-07T07:04:44;4.43;;;3.37;;
47844;SDS011;33605;48.822;8.796;2023-05-07T07:07:10;4.03;;;3.50;;
47844;SDS011;33605;48.822;8.796;2023-05-07T07:09:36;4.23;;;3.83;;
47844;SDS011;33605;48.822;8.796;2023-05-07T07:12:01;3.67;;;3.37;;
47844;SDS011;33605;48.822;8.796;2023-05-07T07:14:27;4.43;;;4.10;;
47844;SDS011;33605;48.822;8.796;2023-05-07T07:16:52;6.30;;;3.53;;
47844;SDS011;33605;48.822;8.796;2023-05-07T07:19:18;4.47;;;3.40;;
47844;SDS011;33605;48.822;8.796;2023-05-07T07:21:45;3.80;;;3.40;;
47844;SDS011;33605;48.822;8.796;2023-05-07T07:24:13;3.83;;;3.43;;
47844;SDS011;33605;48.822;8.796;2023-05-07T07:26:43;3.10;;;2.90;;
47844;SDS011;33605;48.822;8.796;2023-05-07T07:29:09;3.57;;;3.37;;
47844;SDS011;33605;48.822;8.796;2023-05-07T07:31:35;3.67;;;3.37;;
47844;SDS011;33605;48.822;8.796;2023-05-07T07:34:00;3.17;;;2.97;;
47844;SDS011;33605;48.822;8.796;2023-05-07T07:36:26;5.67;;;3.10;;
47844;SDS011;33605;48.822;8.796;2023-05-07T07:38:53;4.37;;;3.27;;
47844;SDS011;33605;48.822;8.796;2023-05-07T07:41:19;4.00;;;3.60;;
47844;SDS011;33605;48.822;8.796;2023-05-07T07:43:45;4.23;;;3.40;;
47844;SDS011;33605;48.822;8.796;2023-05-07T07:46:14;3.70;;;3.40;;
47844;SDS011;33605;48.822;8.796;2023-05-07T07:48:40;3.57;;;3.27;;
47844;SDS011;33605;48.822;8.796;2023-05-07T07:51:06;3.93;;;3.53;;
47844;SDS011;33605;48.822;8.796;2023-05-07T07:53:32;4.50;;;3.20;;
47844;SDS011;33605;48.822;8.796;2023-05-07T07:55:57;3.63;;;3.10;;
47844;SDS011;33605;48.822;8.796;2023-05-07T07:58:23;3.73;;;3.43;;
47844;SDS011;33605;48.822;8.796;2023-05-07T08:00:49;3.90;;;3.43;;
47844;SDS011;33605;48.822;8.796;2023-05-07T08:03:16;3.57;;;2.90;;
47844;SDS011;33605;48.822;8.796;2023-05-07T08:05:42;4.47;;;3.10;;
47844;SDS011;33605;48.822;8.796;2023-05-07T08:08:09;4.50;;;3.13;;
47844;SDS011;33605;48.822;8.796;2023-05-07T08:10:35;3.33;;;3.03;;
47844;SDS011;33605;48.822;8.796;2023-05-07T08:13:03;3.70;;;3.40;;
47844;SDS011;33605;48.822;8.796;2023-05-07T08:15:29;3.47;;;3.17;;
47844;SDS011;33605;48.822;8.796;2023-05-07T08:17:55;3.13;;;2.93;;
47844;SDS011;33605;48.822;8.796;2023-05-07T08:20:22;2.90;;;2.70;;
47844;SDS011;33605;48.822;8.796;2023-05-07T08:22:48;3.83;;;3.43;;
47844;SDS011;33605;48.822;8.796;2023-05-07T08:25:14;3.37;;;3.10;;
47844;SDS011;33605;48.822;8.796;2023-05-07T08:27:40;4.47;;;3.07;;
47844;SDS011;33605;48.822;8.796;2023-05-07T08:30:06;3.90;;;3.60;;
47844;SDS011;33605;48.822;8.796;2023-05-07T08:32:32;3.53;;;3.23;;
47844;SDS011;33605;48.822;8.796;2023-05-07T08:34:59;3.10;;;2.90;;
47844;SDS011;33605;48.822;8.796;2023-05-07T08:37:25;3.03;;;2.60;;
47844;SDS011;33605;48.822;8.796;2023-05-07T08:39:51;3.77;;;3.47;;
47844;SDS011;33605;48.822;8.796;2023-05-07T08:42:17;3.70;;;3.27;;
47844;SDS011;33605;48.822;8.796;2023-05-07T08:44:44;3.37;;;3.07;;
47844;SDS011;33605;48.822;8.796;2023-05-07T08:47:12;3.83;;;3.33;;
47844;SDS011;33605;48.822;8.796;2023-05-07T08:49:37;2.90;;;2.70;;
47844;SDS011;33605;48.822;8.796;2023-05-07T08:52:04;3.10;;;2.90;;
47844;SDS011;33605;48.822;8.796;2023-05-07T08:54:30;3.50;;;3.00;;
47844;SDS011;33605;48.822;8.796;2023-05-07T08:56:56;3.43;;;2.80;;
47844;SDS011;33605;48.822;8.796;2023-05-07T08:59:22;3.07;;;2.67;;
47844;SDS011;33605;48.822;8.796;2023-05-07T09:01:48;4.97;;;3.37;;
47844;SDS011;33605;48.822;8.796;2023-05-07T09:04:14;3.30;;;2.33;;
47844;SDS011;33605;48.822;8.796;2023-05-07T09:06:40;3.53;;;2.90;;
47844;SDS011;33605;48.822;8.796;2023-05-07T09:09:07;4.87;;;2.80;;
47844;SDS011;33605;48.822;8.796;2023-05-07T09:11:33;3.00;;;2.67;;
47844;SDS011;33605;48.822;8.796;2023-05-07T09:13:59;4.83;;;3.20;;
47844;SDS011;33605;48.822;8.796;2023-05-07T09:16:28;4.03;;;2.80;;
47844;SDS011;33605;48.822;8.796;2023-05-07T09:18:55;3.00;;;2.80;;
47844;SDS011;33605;48.822;8.796;2023-05-07T09:21:21;3.47;;;3.17;;
47844;SDS011;33605;48.822;8.796;2023-05-07T09:23:51;2.90;;;2.50;;
47844;SDS011;33605;48.822;8.796;2023-05-07T09:26:17;3.20;;;2.90;;
47844;SDS011;33605;48.822;8.796;2023-05-07T09:28:43;2.60;;;2.40;;
47844;SDS011;33605;48.822;8.796;2023-05-07T09:31:11;4.43;;;2.80;;
47844;SDS011;33605;48.822;8.796;2023-05-07T09:33:38;3.47;;;3.07;;
47844;SDS011;33605;48.822;8.796;2023-05-07T09:36:08;2.97;;;2.73;;
47844;SDS011;33605;48.822;8.796;2023-05-07T09:38:35;2.63;;;2.43;;
47844;SDS011;33605;48.822;8.796;2023-05-07T09:41:02;2.90;;;2.70;;
47844;SDS011;33605;48.822;8.796;2023-05-07T09:43:31;3.40;;;2.27;;
47844;SDS011;33605;48.822;8.796;2023-05-07T09:45:58;3.13;;;2.70;;
47844;SDS011;33605;48.822;8.796;2023-05-07T09:48:25;3.13;;;2.93;;
47844;SDS011;33605;48.822;8.796;2023-05-07T09:50:51;2.60;;;2.37;;
47844;SDS011;33605;48.822;8.796;2023-05-07T09:53:23;3.77;;;2.30;;
47844;SDS011;33605;48.822;8.796;2023-05-07T09:55:49;2.83;;;2.63;;
47844;SDS011;33605;48.822;8.796;2023-05-07T09:58:16;3.07;;;2.77;;
47844;SDS011;33605;48.822;8.796;2023-05-07T10:00:43;2.73;;;2.50;;
47844;SDS011;33605;48.822;8.796;2023-05-07T10:03:10;3.00;;;2.80;;
47844;SDS011;33605;48.822;8.796;2023-05-07T10:05:36;2.50;;;2.30;;
47844;SDS011;33605;48.822;8.796;2023-05-07T10:08:02;2.87;;;2.50;;
47844;SDS011;33605;48.822;8.796;2023-05-07T10:10:29;2.83;;;2.63;;
47844;SDS011;33605;48.822;8.796;2023-05-07T10:12:56;3.20;;;3.00;;
47844;SDS011;33605;48.822;8.796;2023-05-07T10:15:22;3.10;;;2.80;;
47844;SDS011;33605;48.822;8.796;2023-05-07T10:17:49;2.60;;;2.40;;
47844;SDS011;33605;48.822;8.796;2023-05-07T10:20:15;2.70;;;2.50;;
47844;SDS011;33605;48.822;8.796;2023-05-07T10:22:43;3.00;;;2.80;;
47844;SDS011;33605;48.822;8.796;2023-05-07T10:25:13;2.63;;;2.43;;
47844;SDS011;33605;48.822;8.796;2023-05-07T10:27:40;2.90;;;2.70;;
47844;SDS011;33605;48.822;8.796;2023-05-07T10:32:35;3.30;;;2.80;;
47844;SDS011;33605;48.822;8.796;2023-05-07T10:35:03;2.87;;;2.67;;
47844;SDS011;33605;48.822;8.796;2023-05-07T10:37:30;3.03;;;2.50;;
47844;SDS011;33605;48.822;8.796;2023-05-07T10:39:56;2.97;;;2.77;;
47844;SDS011;33605;48.822;8.796;2023-05-07T10:42:23;3.03;;;2.83;;
47844;SDS011;33605;48.822;8.796;2023-05-07T10:44:49;3.47;;;2.67;;
47844;SDS011;33605;48.822;8.796;2023-05-07T10:47:18;3.20;;;2.50;;
47844;SDS011;33605;48.822;8.796;2023-05-07T10:52:23;3.17;;;2.87;;
47844;SDS011;33605;48.822;8.796;2023-05-07T10:55:18;3.00;;;2.63;;
47844;SDS011;33605;48.822;8.796;2023-05-07T10:57:50;4.33;;;3.07;;
47844;SDS011;33605;48.822;8.796;2023-05-07T11:05:26;3.27;;;2.90;;
47844;SDS011;33605;48.822;8.796;2023-05-07T11:08:02;3.70;;;3.33;;
47844;SDS011;33605;48.822;8.796;2023-05-07T11:13:14;4.33;;;3.10;;
47844;SDS011;33605;48.822;8.796;2023-05-07T11:15:41;2.73;;;2.53;;
47844;SDS011;33605;48.822;8.796;2023-05-07T11:18:08;3.40;;;3.10;;
47844;SDS011;33605;48.822;8.796;2023-05-07T11:20:50;3.23;;;2.93;;
47844;SDS011;33605;48.822;8.796;2023-05-07T11:26:05;3.30;;;3.00;;
47844;SDS011;33605;48.822;8.796;2023-05-07T11:28:37;3.33;;;3.03;;
47844;SDS011;33605;48.822;8.796;2023-05-07T11:31:03;3.30;;;3.00;;
47844;SDS011;33605;48.822;8.796;2023-05-07T11:33:29;3.70;;;3.40;;
47844;SDS011;33605;48.822;8.796;2023-05-07T11:35:56;3.30;;;3.00;;
47844;SDS011;33605;48.822;8.796;2023-05-07T11:38:22;4.10;;;3.00;;
47844;SDS011;33605;48.822;8.796;2023-05-07T11:40:49;3.67;;;3.37;;
47844;SDS011;33605;48.822;8.796;2023-05-07T11:43:15;3.60;;;3.30;;
47844;SDS011;33605;48.822;8.796;2023-05-07T11:45:41;5.10;;;3.50;;
47844;SDS011;33605;48.822;8.796;2023-05-07T11:48:07;4.67;;;4.27;;
47844;SDS011;33605;48.822;8.796;2023-05-07T11:50:33;4.50;;;4.10;;
47844;SDS011;33605;48.822;8.796;2023-05-07T11:52:59;4.57;;;3.67;;
47844;SDS011;33605;48.822;8.796;2023-05-07T11:55:25;3.97;;;3.67;;
47844;SDS011;33605;48.822;8.796;2023-05-07T11:57:51;4.20;;;3.80;;
47844;SDS011;33605;48.822;8.796;2023-05-07T12:00:18;3.90;;;3.60;;
47844;SDS011;33605;48.822;8.796;2023-05-07T12:02:44;3.93;;;3.63;;
47844;SDS011;33605;48.822;8.796;2023-05-07T12:05:11;3.37;;;3.17;;
47844;SDS011;33605;48.822;8.796;2023-05-07T12:07:36;4.70;;;4.30;;
47844;SDS011;33605;48.822;8.796;2023-05-07T12:10:06;4.07;;;3.70;;
47844;SDS011;33605;48.822;8.796;2023-05-07T12:12:38;4.30;;;4.00;;
47844;SDS011;33605;48.822;8.796;2023-05-07T12:15:04;3.93;;;3.63;;
47844;SDS011;33605;48.822;8.796;2023-05-07T12:17:30;3.87;;;3.33;;
47844;SDS011;33605;48.822;8.796;2023-05-07T12:19:56;4.23;;;3.67;;
47844;SDS011;33605;48.822;8.796;2023-05-07T12:22:22;3.40;;;3.20;;
47844;SDS011;33605;48.822;8.796;2023-05-07T12:24:49;4.47;;;3.60;;
47844;SDS011;33605;48.822;8.796;2023-05-07T12:27:15;3.73;;;3.33;;
47844;SDS011;33605;48.822;8.796;2023-05-07T12:29:49;4.20;;;3.90;;
47844;SDS011;33605;48.822;8.796;2023-05-07T12:32:20;4.60;;;4.10;;
47844;SDS011;33605;48.822;8.796;2023-05-07T12:34:49;3.47;;;3.10;;
47844;SDS011;33605;48.822;8.796;2023-05-07T12:37:15;5.60;;;3.17;;
47844;SDS011;33605;48.822;8.796;2023-05-07T12:39:44;4.27;;;3.10;;
47844;SDS011;33605;48.822;8.796;2023-05-07T12:42:10;3.63;;;3.27;;
47844;SDS011;33605;48.822;8.796;2023-05-07T12:44:40;2.90;;;2.57;;
47844;SDS011;33605;48.822;8.796;2023-05-07T12:47:07;2.70;;;2.50;;
47844;SDS011;33605;48.822;8.796;2023-05-07T12:49:34;2.50;;;2.30;;
47844;SDS011;33605;48.822;8.796;2023-05-07T12:52:02;2.80;;;2.60;;
47844;SDS011;33605;48.822;8.796;2023-05-07T12:54:31;3.10;;;2.90;;
47844;SDS011;33605;48.822;8.796;2023-05-07T12:57:01;3.50;;;2.50;;
47844;SDS011;33605;48.822;8.796;2023-05-07T12:59:34;2.70;;;2.50;;
47844;SDS011;33605;48.822;8.796;2023-05-07T13:02:00;3.30;;;2.97;;
47844;SDS011;33605;48.822;8.796;2023-05-07T13:04:26;2.83;;;2.60;;
47844;SDS011;33605;48.822;8.796;2023-05-07T13:06:52;3.17;;;2.87;;
47844;SDS011;33605;48.822;8.796;2023-05-07T13:09:18;2.93;;;2.33;;
47844;SDS011;33605;48.822;8.796;2023-05-07T13:11:44;2.50;;;2.30;;
47844;SDS011;33605;48.822;8.796;2023-05-07T13:14:10;2.50;;;2.30;;
47844;SDS011;33605;48.822;8.796;2023-05-07T13:16:36;3.00;;;2.50;;
47844;SDS011;33605;48.822;8.796;2023-05-07T13:19:02;2.33;;;2.13;;
47844;SDS011;33605;48.822;8.796;2023-05-07T13:21:29;2.70;;;2.50;;
47844;SDS011;33605;48.822;8.796;2023-05-07T13:23:56;4.30;;;2.20;;
47844;SDS011;33605;48.822;8.796;2023-05-07T13:26:23;3.80;;;2.30;;
47844;SDS011;33605;48.822;8.796;2023-05-07T13:28:49;2.57;;;2.10;;
47844;SDS011;33605;48.822;8.796;2023-05-07T13:31:16;1.80;;;1.70;;
47844;SDS011;33605;48.822;8.796;2023-05-07T13:33:41;2.33;;;2.03;;
47844;SDS011;33605;48.822;8.796;2023-05-07T13:36:07;2.53;;;2.10;;
47844;SDS011;33605;48.822;8.796;2023-05-07T13:38:34;2.40;;;2.20;;
47844;SDS011;33605;48.822;8.796;2023-05-07T13:41:00;8.30;;;2.47;;
47844;SDS011;33605;48.822;8.796;2023-05-07T13:43:26;3.37;;;2.07;;
47844;SDS011;33605;48.822;8.796;2023-05-07T13:45:52;2.40;;;2.00;;
47844;SDS011;33605;48.822;8.796;2023-05-07T13:48:18;3.13;;;2.23;;
47844;SDS011;33605;48.822;8.796;2023-05-07T13:50:44;1.93;;;1.80;;
47844;SDS011;33605;48.822;8.796;2023-05-07T13:53:10;3.30;;;2.20;;
47844;SDS011;33605;48.822;8.796;2023-05-07T13:55:36;3.30;;;2.33;;
47844;SDS011;33605;48.822;8.796;2023-05-07T13:58:02;2.67;;;2.37;;
47844;SDS011;33605;48.822;8.796;2023-05-07T14:00:28;3.60;;;2.40;;
47844;SDS011;33605;48.822;8.796;2023-05-07T14:02:55;3.73;;;2.30;;
47844;SDS011;33605;48.822;8.796;2023-05-07T14:05:22;8.37;;;2.40;;
47844;SDS011;33605;48.822;8.796;2023-05-07T14:07:49;3.10;;;2.10;;
47844;SDS011;33605;48.822;8.796;2023-05-07T14:10:16;2.50;;;2.27;;
47844;SDS011;33605;48.822;8.796;2023-05-07T14:12:43;3.20;;;2.57;;
47844;SDS011;33605;48.822;8.796;2023-05-07T14:15:09;3.10;;;2.47;;
47844;SDS011;33605;48.822;8.796;2023-05-07T14:17:36;2.10;;;1.90;;
47844;SDS011;33605;48.822;8.796;2023-05-07T14:20:02;2.63;;;2.40;;
47844;SDS011;33605;48.822;8.796;2023-05-07T14:22:31;3.60;;;2.30;;
47844;SDS011;33605;48.822;8.796;2023-05-07T14:24:57;3.20;;;2.47;;
47844;SDS011;33605;48.822;8.796;2023-05-07T14:27:23;2.73;;;2.30;;
47844;SDS011;33605;48.822;8.796;2023-05-07T14:29:49;5.63;;;2.93;;
47844;SDS011;33605;48.822;8.796;2023-05-07T14:32:18;3.70;;;2.50;;
47844;SDS011;33605;48.822;8.796;2023-05-07T14:34:45;4.70;;;3.00;;
47844;SDS011;33605;48.822;8.796;2023-05-07T14:37:11;4.03;;;2.60;;
47844;SDS011;33605;48.822;8.796;2023-05-07T14:39:37;3.17;;;2.73;;
47844;SDS011;33605;48.822;8.796;2023-05-07T14:42:03;9.00;;;3.00;;
47844;SDS011;33605;48.822;8.796;2023-05-07T14:44:30;3.17;;;2.63;;
47844;SDS011;33605;48.822;8.796;2023-05-07T14:46:56;2.27;;;2.17;;
47844;SDS011;33605;48.822;8.796;2023-05-07T14:49:22;10.13;;;3.00;;
47844;SDS011;33605;48.822;8.796;2023-05-07T14:51:48;3.37;;;3.10;;
47844;SDS011;33605;48.822;8.796;2023-05-07T14:54:14;2.47;;;2.27;;
47844;SDS011;33605;48.822;8.796;2023-05-07T14:56:41;2.40;;;2.17;;
47844;SDS011;33605;48.822;8.796;2023-05-07T14:59:07;2.80;;;2.40;;